createdAt,value
2022-12-20T00:00:52.121Z,101188.94
2022-12-20T00:03:20.540Z,101178.28
2022-12-20T00:05:47.502Z,101159.94
2022-12-20T00:08:13.919Z,101165.47
2022-12-20T00:10:42.672Z,101176.47
2022-12-20T00:13:10.691Z,101183.09
2022-12-20T00:15:37.205Z,101173.41
2022-12-20T00:18:04.663Z,101140.16
2022-12-20T00:20:31.282Z,101139.41
2022-12-20T00:22:57.700Z,101152.25
2022-12-20T00:25:24.304Z,101170.75
2022-12-20T00:27:51.141Z,101166.13
2022-12-20T00:30:18.650Z,101165.31
2022-12-20T00:32:45.917Z,101157.75
2022-12-20T00:35:12.856Z,101164.06
2022-12-20T00:37:39.380Z,101167.13
2022-12-20T00:40:06.674Z,101158.59
2022-12-20T00:42:33.342Z,101157.03
2022-12-20T00:44:59.976Z,101150.13
2022-12-20T00:47:26.454Z,101152.56
2022-12-20T00:49:52.876Z,101147.22
2022-12-20T00:52:19.479Z,101153.53
2022-12-20T00:54:45.919Z,101147.69
2022-12-20T00:57:12.301Z,101132.00
2022-12-20T00:59:38.776Z,101146.97
2022-12-20T01:02:05.687Z,101138.03
2022-12-20T01:04:32.179Z,101133.06
2022-12-20T01:06:58.537Z,101132.50
2022-12-20T01:09:24.911Z,101102.50
2022-12-20T01:11:51.314Z,101131.91
2022-12-20T01:14:18.187Z,101137.94
2022-12-20T01:16:46.710Z,101145.22
2022-12-20T01:19:16.037Z,101138.06
2022-12-20T01:21:45.865Z,101144.13
2022-12-20T01:24:14.491Z,101145.66
2022-12-20T01:26:41.005Z,101144.13
2022-12-20T01:29:07.572Z,101141.06
2022-12-20T01:31:34.632Z,101143.84
2022-12-20T01:34:01.454Z,101136.19
2022-12-20T01:36:32.043Z,101101.28
2022-12-20T01:39:08.420Z,101141.88
2022-12-20T01:41:37.066Z,101131.91
2022-12-20T01:44:27.614Z,101133.38
2022-12-20T01:46:55.048Z,101136.75
2022-12-20T01:49:26.473Z,101120.88
2022-12-20T01:52:24.662Z,101117.06
2022-12-20T01:55:02.425Z,101086.50
2022-12-20T01:57:39.702Z,101122.59
2022-12-20T02:00:08.541Z,101119.81
2022-12-20T02:02:36.031Z,101118.00
2022-12-20T02:05:03.102Z,101115.78
2022-12-20T02:07:32.117Z,101103.25
2022-12-20T02:10:00.854Z,101120.25
2022-12-20T02:12:36.900Z,101127.75
2022-12-20T02:15:24.568Z,101134.94
2022-12-20T02:18:22.223Z,101117.72
2022-12-20T02:21:12.650Z,101118.69
2022-12-20T02:23:57.146Z,101115.19
2022-12-20T02:26:42.401Z,101112.13
2022-12-20T02:29:33.822Z,101113.41
2022-12-20T02:32:19.487Z,101098.69
2022-12-20T02:34:46.818Z,101080.66
2022-12-20T02:37:13.253Z,101101.78
2022-12-20T02:39:40.841Z,101104.13
2022-12-20T02:42:10.376Z,101094.94
2022-12-20T02:45:00.326Z,101095.56
2022-12-20T02:47:32.413Z,101095.13
2022-12-20T02:49:59.913Z,101081.25
2022-12-20T02:52:30.897Z,101088.69
2022-12-20T02:54:58.755Z,101082.25
2022-12-20T02:57:36.433Z,101078.22
2022-12-20T03:00:09.848Z,101078.94
2022-12-20T03:03:00.695Z,101085.94
2022-12-20T03:05:27.973Z,101066.00
2022-12-20T03:07:54.595Z,101069.25
2022-12-20T03:10:22.476Z,101039.25
2022-12-20T03:12:48.902Z,101061.97
2022-12-20T03:15:15.442Z,101074.16
2022-12-20T03:17:41.905Z,101073.09
2022-12-20T03:20:11.103Z,101072.94
2022-12-20T03:22:38.566Z,101087.84
2022-12-20T03:25:05.705Z,101075.91
2022-12-20T03:27:32.122Z,101076.50
2022-12-20T03:29:58.531Z,101075.22
2022-12-20T03:32:24.906Z,101081.41
2022-12-20T03:34:51.383Z,101082.41
2022-12-20T03:37:18.140Z,101069.47
2022-12-20T03:39:44.602Z,101075.38
2022-12-20T03:42:11.015Z,101082.81
2022-12-20T03:44:37.460Z,101064.41
2022-12-20T03:47:04.113Z,101060.75
2022-12-20T03:49:30.655Z,101068.69
2022-12-20T03:51:57.051Z,101080.75
2022-12-20T03:54:23.433Z,101054.34
2022-12-20T03:56:49.818Z,101057.81
2022-12-20T03:59:16.516Z,101042.25
2022-12-20T04:01:42.988Z,101061.25
2022-12-20T04:04:12.659Z,101059.28
2022-12-20T04:06:39.104Z,101053.19
2022-12-20T04:09:05.867Z,101062.63
2022-12-20T04:11:32.287Z,101067.28
2022-12-20T04:13:58.713Z,101061.66
2022-12-20T04:16:29.052Z,101062.22
2022-12-20T04:18:55.690Z,101066.44
2022-12-20T04:21:24.729Z,101058.56
2022-12-20T04:23:51.152Z,101022.84
2022-12-20T04:26:18.116Z,101060.41
2022-12-20T04:28:44.567Z,101052.38
2022-12-20T04:31:11.375Z,101062.78
2022-12-20T04:33:38.562Z,101049.00
2022-12-20T04:36:05.390Z,101052.66
2022-12-20T04:38:32.088Z,101045.63
2022-12-20T04:40:58.523Z,101049.16
2022-12-20T04:43:25.291Z,101038.06
2022-12-20T04:45:53.621Z,101050.56
2022-12-20T04:48:55.035Z,101053.94
2022-12-20T04:51:06.686Z,101036.63
2022-12-20T04:53:48.502Z,101050.56
2022-12-20T04:56:28.218Z,101041.69
2022-12-20T04:58:56.971Z,101048.31
2022-12-20T05:01:23.777Z,101046.34
2022-12-20T05:03:50.683Z,101052.66
2022-12-20T05:06:17.552Z,101053.63
2022-12-20T05:08:44.159Z,101043.09
2022-12-20T05:11:11.032Z,101043.38
2022-12-20T05:13:37.499Z,101028.72
2022-12-20T05:16:04.525Z,100993.88
2022-12-20T05:18:31.039Z,101037.19
2022-12-20T05:21:18.054Z,101041.09
2022-12-20T05:24:03.273Z,101026.19
2022-12-20T05:26:33.057Z,101017.06
2022-12-20T05:28:59.509Z,101021.25
2022-12-20T05:31:26.116Z,101022.22
2022-12-20T05:33:52.691Z,101025.03
2022-12-20T05:36:19.188Z,101012.25
2022-12-20T05:38:45.875Z,101022.22
2022-12-20T05:41:12.302Z,101018.84
2022-12-20T05:43:38.732Z,101015.19
2022-12-20T05:46:05.465Z,101017.16
2022-12-20T05:48:31.973Z,101008.56
2022-12-20T05:50:58.991Z,101012.53
2022-12-20T05:53:26.582Z,101015.34
2022-12-20T05:55:54.068Z,101009.16
2022-12-20T05:58:21.139Z,101013.22
2022-12-20T06:00:47.970Z,101015.47
2022-12-20T06:03:17.699Z,101012.09
2022-12-20T06:05:45.376Z,101001.97
2022-12-20T06:08:12.742Z,100979.81
2022-12-20T06:10:41.507Z,101026.72
2022-12-20T06:13:09.376Z,101026.72
2022-12-20T06:15:36.271Z,101037.00
2022-12-20T06:18:02.904Z,101032.91
2022-12-20T06:20:29.340Z,101027.28
2022-12-20T06:22:55.746Z,101022.94
2022-12-20T06:25:22.915Z,101006.94
2022-12-20T06:27:49.399Z,101011.03
2022-12-20T06:30:16.970Z,100994.84
2022-12-20T06:32:43.353Z,100995.72
2022-12-20T06:35:10.001Z,101012.84
2022-12-20T06:37:36.517Z,100988.97
2022-12-20T06:40:06.070Z,101007.94
2022-12-20T06:42:32.541Z,100998.94
2022-12-20T06:44:58.916Z,101018.78
2022-12-20T06:47:25.354Z,101009.78
2022-12-20T06:49:51.811Z,100994.03
2022-12-20T06:52:18.287Z,101004.03
2022-12-20T06:54:44.692Z,101015.41
2022-12-20T06:57:11.119Z,101018.81
2022-12-20T06:59:37.504Z,101018.38
2022-12-20T07:02:04.424Z,101019.91
2022-12-20T07:04:32.065Z,101028.19
2022-12-20T07:06:58.459Z,101011.59
2022-12-20T07:09:24.867Z,101034.38
2022-12-20T07:11:52.045Z,101040.69
2022-12-20T07:14:18.452Z,101046.47
2022-12-20T07:16:45.003Z,101039.19
2022-12-20T07:19:12.885Z,101042.13
2022-12-20T07:21:39.413Z,101004.88
2022-12-20T07:24:06.372Z,101030.06
2022-12-20T07:26:33.281Z,101025.69
2022-12-20T07:28:59.708Z,101021.47
2022-12-20T07:31:26.322Z,101005.59
2022-12-20T07:33:52.842Z,101005.44
2022-12-20T07:36:19.486Z,101009.41
2022-12-20T07:38:46.092Z,100994.91
2022-12-20T07:41:15.764Z,101010.25
2022-12-20T07:43:43.512Z,101015.28
2022-12-20T07:46:12.864Z,101011.91
2022-12-20T07:48:39.369Z,101018.25
2022-12-20T07:51:13.699Z,101015.97
2022-12-20T07:53:46.163Z,100996.72
2022-12-20T07:56:15.052Z,101000.13
2022-12-20T07:58:42.630Z,101017.25
2022-12-20T08:01:10.275Z,101000.81
2022-12-20T08:03:48.083Z,101005.31
2022-12-20T08:06:16.249Z,100998.41
2022-12-20T08:08:47.996Z,100998.97
2022-12-20T08:11:15.331Z,100998.28
2022-12-20T08:13:46.194Z,100966.09
2022-12-20T08:16:13.823Z,100997.56
2022-12-20T08:18:40.427Z,100983.94
2022-12-20T08:21:06.819Z,101000.66
2022-12-20T08:23:33.398Z,100995.06
2022-12-20T08:26:01.639Z,100989.44
2022-12-20T08:28:29.380Z,100931.81
2022-12-20T08:31:03.613Z,100973.94
2022-12-20T08:33:30.214Z,100983.94
2022-12-20T08:35:58.388Z,100979.56
2022-12-20T08:38:26.976Z,100950.91
2022-12-20T08:40:53.362Z,100973.81
2022-12-20T08:43:19.747Z,100973.50
2022-12-20T08:45:52.386Z,100966.06
2022-12-20T08:48:18.814Z,100969.00
2022-12-20T08:50:45.426Z,100956.34
2022-12-20T08:53:11.877Z,100958.00
2022-12-20T08:55:38.284Z,100935.81
2022-12-20T08:58:04.838Z,100943.78
2022-12-20T09:00:31.212Z,100955.59
2022-12-20T09:02:57.875Z,100951.66
2022-12-20T09:05:24.396Z,100954.88
2022-12-20T09:07:50.828Z,100960.91
2022-12-20T09:10:17.224Z,100957.09
2022-12-20T09:12:43.584Z,100960.75
2022-12-20T09:15:10.616Z,100957.78
2022-12-20T09:17:37.469Z,100955.66
2022-12-20T09:20:05.177Z,100962.94
2022-12-20T09:22:31.673Z,100957.22
2022-12-20T09:24:58.467Z,100957.44
2022-12-20T09:27:24.840Z,100939.78
2022-12-20T09:29:51.242Z,100956.59
2022-12-20T09:32:17.632Z,100968.75
2022-12-20T09:34:44.064Z,100947.56
2022-12-20T09:37:10.860Z,100966.63
2022-12-20T09:39:37.574Z,100976.72
2022-12-20T09:42:07.845Z,100983.19
2022-12-20T09:44:36.428Z,100965.50
2022-12-20T09:47:18.300Z,100972.69
2022-12-20T09:49:48.601Z,100971.16
2022-12-20T09:52:18.032Z,100965.38
2022-12-20T09:54:56.585Z,100946.44
2022-12-20T09:57:42.013Z,100958.53
2022-12-20T10:00:15.023Z,100967.31
2022-12-20T10:03:00.102Z,100958.22
2022-12-20T10:05:41.114Z,100957.09
2022-12-20T10:08:08.135Z,100950.25
2022-12-20T10:10:52.634Z,100943.53
2022-12-20T10:13:46.672Z,100947.19
2022-12-20T10:16:24.616Z,100947.78
2022-12-20T10:19:02.393Z,100944.28
2022-12-20T10:21:44.524Z,100935.13
2022-12-20T10:24:27.524Z,100926.25
2022-12-20T10:26:54.334Z,100926.13
2022-12-20T10:29:21.554Z,100890.72
2022-12-20T10:32:00.372Z,100918.88
2022-12-20T10:34:31.601Z,100911.84
2022-12-20T10:37:15.880Z,100901.06
2022-12-20T10:39:44.604Z,100896.84
2022-12-20T10:42:36.328Z,100872.91
2022-12-20T10:45:03.681Z,100898.53
2022-12-20T10:47:38.633Z,100898.63
2022-12-20T10:50:22.692Z,100891.19
2022-12-20T10:53:07.995Z,100884.09
2022-12-20T10:55:37.775Z,100874.97
2022-12-20T10:58:12.902Z,100879.78
2022-12-20T11:00:39.869Z,100872.75
2022-12-20T11:03:21.102Z,100872.44
2022-12-20T11:06:04.361Z,100879.59
2022-12-20T11:08:40.911Z,100869.16
2022-12-20T11:11:13.570Z,100876.41
2022-12-20T11:13:41.360Z,100865.69
2022-12-20T11:16:40.023Z,100867.00
2022-12-20T11:19:24.952Z,100858.84
2022-12-20T11:22:18.025Z,100858.53
2022-12-20T11:24:59.806Z,100852.34
2022-12-20T11:27:29.280Z,100851.03
2022-12-20T11:30:04.417Z,100844.38
2022-12-20T11:32:36.945Z,100847.91
2022-12-20T11:35:09.905Z,100813.63
2022-12-20T11:37:56.090Z,100839.56
2022-12-20T11:40:28.452Z,100842.25
2022-12-20T11:43:14.118Z,100814.91
2022-12-20T11:45:58.817Z,100820.66
2022-12-20T11:48:28.072Z,100821.66
2022-12-20T11:51:16.761Z,100829.84
2022-12-20T11:53:57.414Z,100788.88
2022-12-20T11:56:26.739Z,100828.81
2022-12-20T11:59:03.602Z,100828.16
2022-12-20T12:01:44.236Z,100834.03
2022-12-20T12:04:22.714Z,100819.41
2022-12-20T12:07:04.378Z,100826.00
2022-12-20T12:09:40.162Z,100820.94
2022-12-20T12:12:19.333Z,100817.97
2022-12-20T12:15:16.576Z,100830.88
2022-12-20T12:17:46.622Z,100810.38
2022-12-20T12:20:25.662Z,100823.63
2022-12-20T12:22:57.813Z,100815.34
2022-12-20T12:25:24.426Z,100818.81
2022-12-20T12:27:50.855Z,100819.13
2022-12-20T12:30:18.167Z,100817.03
2022-12-20T12:32:55.710Z,100813.31
2022-12-20T12:35:50.654Z,100792.13
2022-12-20T12:38:23.163Z,100801.72
2022-12-20T12:40:53.171Z,100792.50
2022-12-20T12:43:44.289Z,100796.31
2022-12-20T12:46:18.474Z,100790.19
2022-12-20T12:49:06.068Z,100743.13
2022-12-20T12:51:41.233Z,100783.56
2022-12-20T12:54:30.040Z,100768.13
2022-12-20T12:57:17.276Z,100776.59
2022-12-20T12:59:49.610Z,100762.84
2022-12-20T13:02:16.578Z,100766.00
2022-12-20T13:05:10.995Z,100759.25
2022-12-20T13:07:37.516Z,100756.53
2022-12-20T13:10:10.050Z,100761.88
2022-12-20T13:12:36.519Z,100757.13
2022-12-20T13:15:21.413Z,100766.13
2022-12-20T13:18:02.130Z,100759.94
2022-12-20T13:20:30.845Z,100764.75
2022-12-20T13:23:09.034Z,100760.00
2022-12-20T13:25:41.670Z,100747.47
2022-12-20T13:28:23.314Z,100755.38
2022-12-20T13:31:02.232Z,100756.88
2022-12-20T13:33:42.045Z,100750.44
2022-12-20T13:36:11.648Z,100762.56
2022-12-20T13:38:52.604Z,100753.09
2022-12-20T13:41:51.235Z,100765.50
2022-12-20T13:44:18.058Z,100753.56
2022-12-20T13:46:52.417Z,100739.31
2022-12-20T13:49:23.703Z,100776.22
2022-12-20T13:52:12.924Z,100791.41
2022-12-20T13:54:45.643Z,100788.06
2022-12-20T13:57:17.218Z,100790.06
2022-12-20T13:59:48.550Z,100756.41
2022-12-20T14:02:24.932Z,100805.94
2022-12-20T14:05:02.194Z,100797.22
2022-12-20T14:07:32.089Z,100795.84
2022-12-20T14:10:01.510Z,100802.72
2022-12-20T14:12:36.428Z,100756.31
2022-12-20T14:15:20.805Z,100802.16
2022-12-20T14:17:47.215Z,100793.59
2022-12-20T14:20:16.563Z,100789.56
2022-12-20T14:22:51.302Z,100793.88
2022-12-20T14:25:27.996Z,100785.22
2022-12-20T14:27:55.745Z,100785.50
2022-12-20T14:30:32.196Z,100777.34
2022-12-20T14:32:58.790Z,100777.63
2022-12-20T14:35:25.757Z,100763.28
2022-12-20T14:38:00.236Z,100778.47
2022-12-20T14:40:27.632Z,100772.44
2022-12-20T14:42:54.526Z,100742.16
2022-12-20T14:45:26.862Z,100775.38
2022-12-20T14:48:03.373Z,100768.78
2022-12-20T14:50:42.752Z,100767.22
2022-12-20T14:53:22.582Z,100773.13
2022-12-20T14:55:49.763Z,100778.06
2022-12-20T14:58:28.896Z,100771.59
2022-12-20T15:00:58.211Z,100748.47
2022-12-20T15:03:25.790Z,100773.56
2022-12-20T15:05:57.661Z,100775.38
2022-12-20T15:08:34.348Z,100763.50
2022-12-20T15:11:03.482Z,100776.38
2022-12-20T15:13:35.336Z,100777.38
2022-12-20T15:16:13.754Z,100776.53
2022-12-20T15:18:40.283Z,100741.16
2022-12-20T15:21:19.804Z,100745.50
2022-12-20T15:23:49.425Z,100758.53
2022-12-20T15:26:17.653Z,100753.47
2022-12-20T15:28:44.077Z,100750.66
2022-12-20T15:31:15.200Z,100757.97
2022-12-20T15:33:42.900Z,100764.16
2022-12-20T15:36:17.285Z,100766.69
2022-12-20T15:41:33.839Z,100760.13
2022-12-20T15:44:05.111Z,100747.91
2022-12-20T15:46:32.260Z,100763.78
2022-12-20T15:48:59.303Z,100750.28
2022-12-20T15:51:30.861Z,100732.06
2022-12-20T15:53:57.705Z,100757.75
2022-12-20T15:56:25.224Z,100758.88
2022-12-20T15:58:52.807Z,100759.56
2022-12-20T16:01:32.109Z,100736.50
2022-12-20T16:04:02.996Z,100746.34
2022-12-20T16:06:29.460Z,100748.31
2022-12-20T16:08:55.846Z,100741.16
2022-12-20T16:11:30.474Z,100756.34
2022-12-20T16:13:58.937Z,100740.09
2022-12-20T16:16:35.485Z,100740.88
2022-12-20T16:19:03.961Z,100732.75
2022-12-20T16:21:36.060Z,100736.09
2022-12-20T16:24:03.147Z,100739.03
2022-12-20T16:26:29.775Z,100742.56
2022-12-20T16:28:56.542Z,100727.41
2022-12-20T16:31:32.183Z,100752.34
2022-12-20T16:34:00.596Z,100743.94
2022-12-20T16:36:27.259Z,100728.22
2022-12-20T16:38:56.642Z,100739.44
2022-12-20T16:41:28.127Z,100734.78
2022-12-20T16:43:56.536Z,100735.75
2022-12-20T16:46:27.138Z,100741.94
2022-12-20T16:48:58.026Z,100727.22
2022-12-20T16:51:38.439Z,100750.06
2022-12-20T16:54:20.066Z,100718.41
2022-12-20T16:56:48.392Z,100725.13
2022-12-20T16:59:23.242Z,100748.38
2022-12-20T17:01:52.684Z,100745.72
2022-12-20T17:04:20.497Z,100738.97
2022-12-20T17:06:47.460Z,100743.59
2022-12-20T17:09:16.159Z,100727.84
2022-12-20T17:11:43.165Z,100724.88
2022-12-20T17:14:13.046Z,100701.78
2022-12-20T17:16:40.618Z,100734.13
2022-12-20T17:19:07.327Z,100722.91
2022-12-20T17:24:22.048Z,100708.38
2022-12-20T17:26:49.167Z,100728.69
2022-12-20T17:29:16.748Z,100706.69
2022-12-20T17:31:45.315Z,100718.84
2022-12-20T17:34:26.707Z,100697.22
2022-12-20T17:36:55.160Z,100726.25
2022-12-20T17:39:22.950Z,100717.44
2022-12-20T17:41:49.587Z,100724.13
2022-12-20T17:44:18.841Z,100723.56
2022-12-20T17:46:45.725Z,100726.78
2022-12-20T17:49:12.601Z,100727.78
2022-12-20T17:51:38.997Z,100723.13
2022-12-20T17:54:05.796Z,100718.09
2022-12-20T17:56:35.832Z,100715.56
2022-12-20T17:59:04.515Z,100729.19
2022-12-20T18:01:34.107Z,100720.09
2022-12-20T18:04:05.691Z,100721.84
2022-12-20T18:06:34.855Z,100711.84
2022-12-20T18:09:01.248Z,100716.34
2022-12-20T18:11:29.030Z,100722.53
2022-12-20T18:13:57.870Z,100724.91
2022-12-20T18:16:27.029Z,100725.22
2022-12-20T18:18:54.137Z,100701.53
2022-12-20T18:21:22.096Z,100730.94
2022-12-20T18:23:48.913Z,100739.63
2022-12-20T18:26:17.149Z,100724.59
2022-12-20T18:28:46.092Z,100729.78
2022-12-20T18:31:21.236Z,100732.16
2022-12-20T18:33:53.907Z,100737.66
2022-12-20T18:36:35.156Z,100739.91
2022-12-20T18:39:04.285Z,100726.81
2022-12-20T18:41:31.700Z,100715.59
2022-12-20T18:44:02.189Z,100726.97
2022-12-20T18:46:29.906Z,100731.63
2022-12-20T18:48:58.071Z,100730.78
2022-12-20T18:51:27.419Z,100732.16
2022-12-20T18:53:56.258Z,100727.97
2022-12-20T18:56:34.778Z,100736.53
2022-12-20T18:59:10.447Z,100741.19
2022-12-20T19:01:38.543Z,100737.97
2022-12-20T19:04:07.158Z,100730.94
2022-12-20T19:06:34.061Z,100711.75
2022-12-20T19:09:01.480Z,100723.59
2022-12-20T19:11:29.019Z,100727.28
2022-12-20T19:13:55.704Z,100727.28
2022-12-20T19:16:32.558Z,100729.28
2022-12-20T19:19:03.784Z,100719.88
2022-12-20T19:21:32.711Z,100721.91
2022-12-20T19:24:01.521Z,100719.25
2022-12-20T19:26:28.507Z,100720.56
2022-12-20T19:28:55.249Z,100719.41
2022-12-20T19:31:27.598Z,100732.31
2022-12-20T19:34:15.395Z,100725.28
2022-12-20T19:36:46.379Z,100714.91
2022-12-20T19:39:20.068Z,100698.31
2022-12-20T19:42:07.502Z,100726.59
2022-12-20T19:44:33.562Z,100714.53
2022-12-20T19:47:06.347Z,100705.13
2022-12-20T19:49:33.274Z,100713.69
2022-12-20T19:51:59.724Z,100716.34
2022-12-20T19:54:26.213Z,100717.19
2022-12-20T19:56:52.649Z,100717.34
2022-12-20T19:59:19.237Z,100721.00
2022-12-20T20:01:45.893Z,100714.69
2022-12-20T20:04:12.371Z,100718.50
2022-12-20T20:06:38.793Z,100715.13
2022-12-20T20:09:05.341Z,100692.13
2022-12-20T20:11:31.751Z,100718.63
2022-12-20T20:14:00.366Z,100702.19
2022-12-20T20:16:26.953Z,100719.63
2022-12-20T20:18:53.597Z,100720.47
2022-12-20T20:21:22.674Z,100717.94
2022-12-20T20:23:51.098Z,100721.59
2022-12-20T20:26:21.312Z,100723.28
2022-12-20T20:28:47.744Z,100722.41
2022-12-20T20:31:16.847Z,100714.75
2022-12-20T20:33:44.588Z,100713.72
2022-12-20T20:36:16.141Z,100698.91
2022-12-20T20:38:42.905Z,100688.69
2022-12-20T20:41:10.547Z,100708.88
2022-12-20T20:43:38.019Z,100683.88
2022-12-20T20:46:06.588Z,100710.53
2022-12-20T20:48:33.353Z,100709.09
2022-12-20T20:51:00.066Z,100714.44
2022-12-20T20:53:33.118Z,100708.38
2022-12-20T20:56:00.721Z,100717.94
2022-12-20T20:58:27.277Z,100707.88
2022-12-20T21:00:58.968Z,100716.25
2022-12-20T21:03:27.194Z,100716.72
2022-12-20T21:06:32.922Z,100717.94
2022-12-20T21:08:40.412Z,100710.75
2022-12-20T21:11:08.421Z,100709.91
2022-12-20T21:13:35.065Z,100666.78
2022-12-20T21:16:09.029Z,100705.72
2022-12-20T21:18:35.666Z,100709.22
2022-12-20T21:21:07.038Z,100710.47
2022-12-20T21:23:33.481Z,100710.47
2022-12-20T21:26:00.348Z,100700.06
2022-12-20T21:28:27.650Z,100704.44
2022-12-20T21:30:59.304Z,100684.56
2022-12-20T21:33:25.804Z,100715.81
2022-12-20T21:36:03.375Z,100707.53
2022-12-20T21:38:30.147Z,100713.44
2022-12-20T21:41:07.900Z,100701.53
2022-12-20T21:43:34.935Z,100710.31
2022-12-20T21:46:01.909Z,100712.84
2022-12-20T21:48:29.679Z,100702.75
2022-12-20T21:51:03.959Z,100703.00
2022-12-20T21:53:31.727Z,100683.22
2022-12-20T21:55:59.810Z,100688.66
2022-12-20T21:58:28.328Z,100693.69
2022-12-20T22:00:55.958Z,100693.84
2022-12-20T22:03:23.897Z,100690.34
2022-12-20T22:05:53.550Z,100694.53
2022-12-20T22:08:20.380Z,100669.00
2022-12-20T22:10:47.105Z,100702.56
2022-12-20T22:13:13.749Z,100691.31
2022-12-20T22:15:40.810Z,100695.19
2022-12-20T22:18:08.073Z,100664.28
2022-12-20T22:20:35.468Z,100690.00
2022-12-20T22:23:02.423Z,100689.19
2022-12-20T22:25:28.913Z,100678.09
2022-12-20T22:27:55.428Z,100693.69
2022-12-20T22:30:21.871Z,100690.84
2022-12-20T22:32:48.324Z,100690.53
2022-12-20T22:35:22.235Z,100696.38
2022-12-20T22:37:49.230Z,100690.00
2022-12-20T22:40:15.766Z,100694.53
2022-12-20T22:42:42.165Z,100691.69
2022-12-20T22:45:09.487Z,100696.50
2022-12-20T22:47:40.817Z,100700.53
2022-12-20T22:50:08.216Z,100691.75
2022-12-20T22:52:35.008Z,100692.59
2022-12-20T22:55:01.540Z,100707.72
2022-12-20T22:57:27.924Z,100699.34
2022-12-20T22:59:58.607Z,100707.41
2022-12-20T23:02:26.020Z,100711.22
2022-12-20T23:04:52.893Z,100699.88
2022-12-20T23:07:20.468Z,100702.22
2022-12-20T23:09:47.158Z,100709.09
2022-12-20T23:12:31.880Z,100707.28
2022-12-20T23:15:16.669Z,100703.91
2022-12-20T23:17:43.149Z,100682.22
2022-12-20T23:20:28.522Z,100701.09
2022-12-20T23:22:55.997Z,100671.53
2022-12-20T23:25:22.452Z,100687.03
2022-12-20T23:27:50.130Z,100683.22
2022-12-20T23:30:19.448Z,100694.59
2022-12-20T23:32:46.016Z,100687.56
2022-12-20T23:35:15.347Z,100700.78
2022-12-20T23:37:42.073Z,100688.28
2022-12-20T23:40:09.877Z,100657.31
2022-12-20T23:42:36.308Z,100683.91
2022-12-20T23:45:02.888Z,100698.81
2022-12-20T23:47:30.562Z,100672.00
2022-12-20T23:49:57.001Z,100702.31
2022-12-20T23:52:23.419Z,100690.09
2022-12-20T23:54:49.998Z,100696.81
2022-12-20T23:57:16.453Z,100702.31
2022-12-20T23:59:42.872Z,100715.53
